createdAt,value
2017-07-18T00:00:04.212Z,-4.12
2017-07-18T00:00:58.182Z,-4.12
2017-07-18T00:01:58.653Z,-4.12
2017-07-18T00:02:58.361Z,-4.12
2017-07-18T00:03:53.427Z,-4.12
2017-07-18T00:04:53.351Z,-4.12
2017-07-18T00:05:53.459Z,-4.12
2017-07-18T00:06:53.470Z,-4.12
2017-07-18T00:07:59.467Z,-4.12
2017-07-18T00:08:59.451Z,-4.13
2017-07-18T00:09:53.590Z,-4.13
2017-07-18T00:10:53.631Z,-4.13
2017-07-18T00:11:48.619Z,-4.13
2017-07-18T00:12:43.701Z,-4.13
2017-07-18T00:13:43.692Z,-4.13
2017-07-18T00:14:38.818Z,-4.13
2017-07-18T00:15:33.772Z,-4.13
2017-07-18T00:16:33.936Z,-4.13
2017-07-18T00:17:28.814Z,-4.13
2017-07-18T00:18:23.879Z,-4.13
2017-07-18T00:19:24.878Z,-4.13
2017-07-18T00:20:26.045Z,-4.13
2017-07-18T00:21:20.928Z,-4.13
2017-07-18T00:22:14.986Z,-4.13
2017-07-18T00:23:14.959Z,-4.13
2017-07-18T00:24:15.098Z,-4.13
2017-07-18T00:25:10.130Z,-4.13
2017-07-18T00:26:04.171Z,-4.13
2017-07-18T00:27:04.181Z,-4.13
2017-07-18T00:27:59.167Z,-4.13
2017-07-18T00:28:54.310Z,-4.13
2017-07-18T00:30:00.248Z,-4.13
2017-07-18T00:30:54.337Z,-4.13
2017-07-18T00:31:55.387Z,-4.13
2017-07-18T00:32:55.413Z,-4.13
2017-07-18T00:33:55.439Z,-4.13
2017-07-18T00:34:50.429Z,-4.13
2017-07-18T00:35:50.455Z,-4.13
2017-07-18T00:36:50.623Z,-4.13
2017-07-18T00:37:44.600Z,-4.13
2017-07-18T00:38:44.634Z,-4.13
2017-07-18T00:39:39.619Z,-4.13
2017-07-18T00:40:39.692Z,-4.13
2017-07-18T00:41:33.718Z,-4.13
2017-07-18T00:42:33.850Z,-4.13
2017-07-18T00:43:28.804Z,-4.13
2017-07-18T00:44:23.891Z,-4.13
2017-07-18T00:45:23.836Z,-4.13
2017-07-18T00:46:18.838Z,-4.13
2017-07-18T00:47:13.982Z,-4.13
2017-07-18T00:48:14.946Z,-4.13
2017-07-18T00:49:15.967Z,-4.13
2017-07-18T00:50:11.142Z,-4.13
2017-07-18T00:51:05.110Z,-4.13
2017-07-18T00:52:05.110Z,-4.13
2017-07-18T00:53:05.183Z,-4.13
2017-07-18T00:54:00.146Z,-4.13
2017-07-18T00:55:00.170Z,-4.13
2017-07-18T00:56:06.261Z,-4.13
2017-07-18T00:57:01.287Z,-4.13
2017-07-18T00:58:01.400Z,-4.13
2017-07-18T00:58:56.320Z,-4.13
2017-07-18T00:59:51.411Z,-4.13
2017-07-18T01:00:51.451Z,-4.13
2017-07-18T01:01:46.460Z,-4.13
2017-07-18T01:02:41.484Z,-4.13
2017-07-18T01:03:47.515Z,-4.13
2017-07-18T01:04:41.581Z,-4.13
2017-07-18T01:05:41.476Z,-4.13
2017-07-18T01:06:36.692Z,-4.13
2017-07-18T01:07:36.570Z,-4.13
2017-07-18T01:08:30.659Z,-4.13
2017-07-18T01:09:30.713Z,-4.13
2017-07-18T01:10:25.726Z,-4.13
2017-07-18T01:11:25.703Z,-4.13
2017-07-18T01:12:25.926Z,-4.13
2017-07-18T01:13:25.898Z,-4.13
2017-07-18T01:14:25.969Z,-4.13
2017-07-18T01:15:32.999Z,-4.13
2017-07-18T01:16:32.949Z,-4.13
2017-07-18T01:17:32.922Z,-4.13
2017-07-18T01:18:27.278Z,-4.13
2017-07-18T01:19:26.932Z,-4.13
2017-07-18T01:20:22.062Z,-4.13
2017-07-18T01:21:17.126Z,-4.13
2017-07-18T01:22:18.181Z,-4.13
2017-07-18T01:23:18.212Z,-4.13
2017-07-18T01:24:18.303Z,-4.13
2017-07-18T01:25:13.232Z,-4.13
2017-07-18T01:26:13.276Z,-4.13
2017-07-18T01:27:13.257Z,-4.13
2017-07-18T01:28:13.375Z,-4.13
2017-07-18T01:29:13.744Z,-4.13
2017-07-18T01:30:07.465Z,-4.13
2017-07-18T01:31:08.430Z,-4.13
2017-07-18T01:32:03.538Z,-4.13
2017-07-18T01:32:57.546Z,-4.13
2017-07-18T01:33:45.555Z,-4.13
2017-07-18T01:34:33.642Z,-4.13
2017-07-18T01:35:22.675Z,-4.13
2017-07-18T01:36:10.714Z,-4.13
2017-07-18T01:36:58.686Z,-4.13
2017-07-18T01:37:58.654Z,-4.13
2017-07-18T01:38:53.781Z,-4.13
2017-07-18T01:39:53.818Z,-4.13
2017-07-18T01:40:48.937Z,-4.13
2017-07-18T01:41:43.851Z,-4.13
2017-07-18T01:42:43.917Z,-4.13
2017-07-18T01:43:38.889Z,-4.13
2017-07-18T01:44:33.987Z,-4.13
2017-07-18T01:45:35.006Z,-4.13
2017-07-18T01:46:35.199Z,-4.13
2017-07-18T01:47:35.118Z,-4.13
2017-07-18T01:48:35.128Z,-4.13
2017-07-18T01:49:35.059Z,-4.13
2017-07-18T01:50:30.244Z,-4.13
2017-07-18T01:51:24.271Z,-4.13
2017-07-18T01:52:24.304Z,-4.13
2017-07-18T01:53:19.358Z,-4.13
2017-07-18T01:54:14.693Z,-4.13
2017-07-18T01:55:14.418Z,-4.13
2017-07-18T01:56:09.482Z,-4.13
2017-07-18T01:57:04.374Z,-4.13
2017-07-18T01:58:05.466Z,-4.13
2017-07-18T01:59:05.549Z,-4.13
2017-07-18T02:00:00.519Z,-4.13
2017-07-18T02:01:00.607Z,-4.13
2017-07-18T02:01:55.055Z,-4.13
2017-07-18T02:02:54.659Z,-4.13
2017-07-18T02:03:49.727Z,-4.13
2017-07-18T02:04:49.819Z,-4.13
2017-07-18T02:05:49.722Z,-4.13
2017-07-18T02:06:49.745Z,-4.13
2017-07-18T02:07:43.777Z,-4.13
2017-07-18T02:08:43.874Z,-4.13
2017-07-18T02:09:38.929Z,-4.13
2017-07-18T02:10:34.021Z,-4.13
2017-07-18T02:11:33.866Z,-4.13
2017-07-18T02:12:29.082Z,-4.13
2017-07-18T02:13:24.016Z,-4.13
2017-07-18T02:14:24.036Z,-4.13
2017-07-18T02:15:19.139Z,-4.13
2017-07-18T02:16:14.116Z,-4.13
2017-07-18T02:17:15.203Z,-4.13
2017-07-18T02:18:15.284Z,-4.13
2017-07-18T02:19:15.497Z,-4.13
2017-07-18T02:20:15.323Z,-4.13
2017-07-18T02:21:16.424Z,-4.13
2017-07-18T02:22:17.351Z,-4.13
2017-07-18T02:23:17.367Z,-4.13
2017-07-18T02:24:23.321Z,-4.13
2017-07-18T02:25:18.436Z,-4.13
2017-07-18T02:26:18.513Z,-4.13
2017-07-18T02:27:07.513Z,-4.13
2017-07-18T02:28:01.591Z,-4.13
2017-07-18T02:28:55.951Z,-4.13
2017-07-18T02:29:43.646Z,-4.13
2017-07-18T02:30:38.642Z,-4.13
2017-07-18T02:31:27.723Z,-4.13
2017-07-18T02:32:16.800Z,-4.13
2017-07-18T02:33:04.813Z,-4.13
2017-07-18T02:33:58.756Z,-4.13
2017-07-18T02:34:46.883Z,-4.13
2017-07-18T02:35:40.923Z,-4.13
2017-07-18T02:36:36.059Z,-4.13
2017-07-18T02:37:24.985Z,-4.13
2017-07-18T02:38:14.000Z,-4.13
2017-07-18T02:39:02.070Z,-4.13
2017-07-18T02:39:50.115Z,-4.13
2017-07-18T02:40:39.225Z,-4.13
2017-07-18T02:41:27.144Z,-4.13
2017-07-18T02:42:15.283Z,-4.13
2017-07-18T02:43:04.175Z,-4.13
2017-07-18T02:43:52.376Z,-4.13
2017-07-18T02:44:40.348Z,-4.13
2017-07-18T02:45:29.427Z,-4.13
2017-07-18T02:46:17.465Z,-4.13
2017-07-18T02:47:05.516Z,-4.13
2017-07-18T02:47:54.486Z,-4.13
2017-07-18T02:48:42.511Z,-4.13
2017-07-18T02:49:30.583Z,-4.13
2017-07-18T02:50:19.658Z,-4.13
2017-07-18T02:51:13.649Z,-4.13
2017-07-18T02:52:13.714Z,-4.13
2017-07-18T02:53:07.695Z,-4.13
2017-07-18T02:54:08.767Z,-4.13
2017-07-18T02:55:08.785Z,-4.13
2017-07-18T02:56:03.816Z,-4.13
2017-07-18T02:57:03.867Z,-4.13
2017-07-18T02:57:57.907Z,-4.13
2017-07-18T02:58:57.936Z,-4.13
2017-07-18T02:59:52.923Z,-4.13
2017-07-18T03:00:48.038Z,-4.13
2017-07-18T03:01:49.005Z,-4.13
2017-07-18T03:02:49.028Z,-4.13
2017-07-18T03:03:44.143Z,-4.13
2017-07-18T03:04:44.190Z,-4.13
2017-07-18T03:05:44.138Z,-4.13
2017-07-18T03:06:45.297Z,-4.13
2017-07-18T03:07:40.249Z,-4.13
2017-07-18T03:08:28.276Z,-4.13
2017-07-18T03:09:16.367Z,-4.13
2017-07-18T03:10:04.361Z,-4.13
2017-07-18T03:10:53.408Z,-4.13
2017-07-18T03:11:41.497Z,-4.13
2017-07-18T03:12:30.511Z,-4.13
2017-07-18T03:13:19.472Z,-4.13
2017-07-18T03:14:08.604Z,-4.13
2017-07-18T03:14:57.630Z,-4.13
2017-07-18T03:15:45.633Z,-4.13
2017-07-18T03:16:33.753Z,-4.13
2017-07-18T03:17:21.778Z,-4.13
2017-07-18T03:18:15.762Z,-4.13
2017-07-18T03:19:10.868Z,-4.13
2017-07-18T03:19:58.811Z,-4.13
2017-07-18T03:20:46.995Z,-4.13
2017-07-18T03:21:35.870Z,-4.13
2017-07-18T03:22:30.061Z,-4.13
2017-07-18T03:23:19.021Z,-4.13
2017-07-18T03:24:14.091Z,-4.13
2017-07-18T03:25:03.111Z,-4.13
2017-07-18T03:25:51.126Z,-4.13
2017-07-18T03:26:45.240Z,-4.13
2017-07-18T03:27:45.212Z,-4.13
2017-07-18T03:28:39.266Z,-4.13
2017-07-18T03:29:40.334Z,-4.13
2017-07-18T03:30:35.316Z,-4.13
2017-07-18T03:31:30.274Z,-4.13
2017-07-18T03:32:24.429Z,-4.13
2017-07-18T03:33:18.434Z,-4.13
2017-07-18T03:34:13.528Z,-4.13
2017-07-18T03:35:01.618Z,-4.13
2017-07-18T03:35:49.496Z,-4.13
2017-07-18T03:36:37.682Z,-4.13
2017-07-18T03:37:26.590Z,-4.13
2017-07-18T03:38:15.741Z,-4.13
2017-07-18T03:39:10.726Z,-4.13
2017-07-18T03:40:10.774Z,-4.13
2017-07-18T03:41:05.820Z,-4.13
2017-07-18T03:42:05.968Z,-4.13
2017-07-18T03:43:06.821Z,-4.13
2017-07-18T03:44:06.900Z,-4.13
2017-07-18T03:45:12.857Z,-4.13
2017-07-18T03:46:08.000Z,-4.13
2017-07-18T03:47:02.030Z,-4.13
2017-07-18T03:48:02.077Z,-4.13
2017-07-18T03:49:02.032Z,-4.13
2017-07-18T03:50:03.184Z,-4.13
2017-07-18T03:51:09.099Z,-4.13
2017-07-18T03:52:03.136Z,-4.13
2017-07-18T03:53:04.252Z,-4.13
2017-07-18T03:53:59.237Z,-4.13
2017-07-18T03:54:59.294Z,-4.13
2017-07-18T03:55:59.223Z,-4.13
2017-07-18T03:56:59.300Z,-4.13
2017-07-18T03:57:59.363Z,-4.13
2017-07-18T03:58:59.386Z,-4.13
2017-07-18T03:59:59.509Z,-4.13
2017-07-18T04:00:59.446Z,-4.13
2017-07-18T04:01:59.510Z,-4.13
2017-07-18T04:02:53.538Z,-4.13
2017-07-18T04:03:53.560Z,-4.13
2017-07-18T04:04:48.676Z,-4.13
2017-07-18T04:05:43.641Z,-4.13
2017-07-18T04:06:37.689Z,-4.13
2017-07-18T04:07:37.714Z,-4.13
2017-07-18T04:08:33.157Z,-4.13
2017-07-18T04:09:27.744Z,-4.13
2017-07-18T04:10:16.943Z,-4.13
2017-07-18T04:11:11.868Z,-4.13
2017-07-18T04:12:11.974Z,-4.13
2017-07-18T04:13:06.959Z,-4.13
2017-07-18T04:14:06.969Z,-4.13
2017-07-18T04:15:07.097Z,-4.13
2017-07-18T04:16:07.098Z,-4.13
2017-07-18T04:17:01.098Z,-4.13
2017-07-18T04:18:01.153Z,-4.13
2017-07-18T04:18:49.187Z,-4.13
2017-07-18T04:19:37.175Z,-4.13
2017-07-18T04:20:25.257Z,-4.13
2017-07-18T04:21:19.233Z,-4.13
2017-07-18T04:22:13.320Z,-4.13
2017-07-18T04:23:13.298Z,-4.13
2017-07-18T04:24:07.383Z,-4.13
2017-07-18T04:25:08.429Z,-4.13
2017-07-18T04:25:57.520Z,-4.13
2017-07-18T04:26:45.530Z,-4.13
2017-07-18T04:27:45.534Z,-4.13
2017-07-18T04:28:39.970Z,-4.13
2017-07-18T04:29:28.592Z,-4.13
2017-07-18T04:30:22.703Z,-4.13
2017-07-18T04:31:10.669Z,-4.13
2017-07-18T04:31:58.728Z,-4.13
2017-07-18T04:32:47.800Z,-4.13
2017-07-18T04:33:47.825Z,-4.13
2017-07-18T04:34:41.836Z,-4.13
2017-07-18T04:35:30.955Z,-4.13
2017-07-18T04:36:18.948Z,-4.13
2017-07-18T04:37:08.043Z,-4.13
2017-07-18T04:38:02.979Z,-4.13
2017-07-18T04:39:03.082Z,-4.13
2017-07-18T04:39:52.095Z,-4.13
2017-07-18T04:40:40.194Z,-4.13
2017-07-18T04:41:34.166Z,-4.13
2017-07-18T04:42:23.297Z,-4.13
2017-07-18T04:43:23.358Z,-4.12
2017-07-18T04:44:17.329Z,-4.12
2017-07-18T04:45:18.351Z,-4.12
2017-07-18T04:46:12.404Z,-4.12
2017-07-18T04:47:06.469Z,-4.12
2017-07-18T04:48:06.420Z,-4.12
2017-07-18T04:49:06.521Z,-4.12
2017-07-18T04:50:06.498Z,-4.12
2017-07-18T04:51:01.560Z,-4.12
2017-07-18T04:51:50.575Z,-4.12
2017-07-18T04:52:44.701Z,-4.11
2017-07-18T04:53:33.072Z,-4.11
2017-07-18T04:54:21.696Z,-4.11
2017-07-18T04:55:09.807Z,-4.11
2017-07-18T04:56:09.765Z,-4.11
2017-07-18T04:57:09.811Z,-4.11
2017-07-18T04:58:09.937Z,-4.11
2017-07-18T04:58:57.986Z,-4.11
2017-07-18T04:59:46.084Z,-4.11
2017-07-18T05:00:35.082Z,-4.11
2017-07-18T05:01:29.043Z,-4.11
2017-07-18T05:02:24.061Z,-4.12
2017-07-18T05:03:19.129Z,-4.12
2017-07-18T05:04:13.901Z,-4.12
2017-07-18T05:05:07.223Z,-4.12
2017-07-18T05:06:01.254Z,-4.11
2017-07-18T05:06:56.331Z,-4.11
2017-07-18T05:07:56.364Z,-4.11
2017-07-18T05:08:51.435Z,-4.11
2017-07-18T05:09:45.391Z,-4.11
2017-07-18T05:10:39.509Z,-4.11
2017-07-18T05:11:34.506Z,-4.11
2017-07-18T05:12:29.645Z,-4.11
2017-07-18T05:13:23.673Z,-4.11
2017-07-18T05:14:23.640Z,-4.11
2017-07-18T05:15:11.783Z,-4.11
2017-07-18T05:16:06.747Z,-4.11
2017-07-18T05:17:02.147Z,-4.11
2017-07-18T05:17:55.950Z,-4.11
2017-07-18T05:18:44.173Z,-4.11
2017-07-18T05:19:45.090Z,-4.11
2017-07-18T05:20:34.151Z,-4.10
2017-07-18T05:21:28.053Z,-4.10
2017-07-18T05:22:28.299Z,-4.10
2017-07-18T05:23:22.129Z,-4.10
2017-07-18T05:24:10.306Z,-4.10
2017-07-18T05:25:04.223Z,-4.10
2017-07-18T05:25:58.364Z,-4.10
2017-07-18T05:26:53.348Z,-4.10
2017-07-18T05:27:47.370Z,-4.10
2017-07-18T05:28:36.857Z,-4.10
2017-07-18T05:29:31.432Z,-4.10
2017-07-18T05:30:19.514Z,-4.10
2017-07-18T05:31:13.524Z,-4.10
2017-07-18T05:32:13.596Z,-4.10
2017-07-18T05:33:08.601Z,-4.10
2017-07-18T05:34:08.760Z,-4.09
2017-07-18T05:35:02.660Z,-4.09
2017-07-18T05:35:56.818Z,-4.09
2017-07-18T05:36:46.030Z,-4.09
2017-07-18T05:37:39.963Z,-4.09
2017-07-18T05:38:34.350Z,-4.09
2017-07-18T05:39:29.012Z,-4.09
2017-07-18T05:40:23.969Z,-4.08
2017-07-18T05:41:24.202Z,-4.08
2017-07-18T05:42:19.111Z,-4.08
2017-07-18T05:43:14.200Z,-4.08
2017-07-18T05:44:03.566Z,-4.08
2017-07-18T05:44:57.500Z,-4.08
2017-07-18T05:45:51.696Z,-4.08
2017-07-18T05:46:39.795Z,-4.08
2017-07-18T05:47:39.520Z,-4.07
2017-07-18T05:48:28.825Z,-4.07
2017-07-18T05:49:22.630Z,1.48
2017-07-18T05:50:23.521Z,-4.06
2017-07-18T05:51:18.619Z,9.53
2017-07-18T05:52:07.708Z,5.08
2017-07-18T05:53:01.967Z,4.69
2017-07-18T05:54:01.794Z,1.10
2017-07-18T05:54:56.963Z,11.81
2017-07-18T05:55:57.104Z,13.84
2017-07-18T05:56:46.119Z,4.66
2017-07-18T05:57:34.912Z,8.60
2017-07-18T05:58:29.068Z,19.11
2017-07-18T05:59:24.184Z,14.55
2017-07-18T06:00:18.181Z,17.96
2017-07-18T06:01:06.562Z,24.28
2017-07-18T06:02:01.423Z,24.59
2017-07-18T06:03:02.400Z,28.80
2017-07-18T06:04:02.674Z,29.14
2017-07-18T06:04:50.735Z,24.26
2017-07-18T06:05:39.711Z,19.47
2017-07-18T06:06:33.689Z,26.05
2017-07-18T06:07:33.572Z,19.25
2017-07-18T06:08:28.967Z,13.75
2017-07-18T06:09:17.687Z,24.42
2017-07-18T06:10:11.859Z,21.61
2017-07-18T06:11:05.935Z,17.40
2017-07-18T06:12:00.937Z,7.91
2017-07-18T06:12:55.989Z,6.60
2017-07-18T06:13:44.480Z,1.62
2017-07-18T06:14:44.179Z,-4.08
2017-07-18T06:15:32.135Z,-4.08
2017-07-18T06:16:20.439Z,-4.08
2017-07-18T06:17:14.475Z,-4.08
2017-07-18T06:18:08.289Z,-4.08
2017-07-18T06:19:08.387Z,-4.08
2017-07-18T06:20:02.660Z,-4.08
2017-07-18T06:20:56.458Z,-4.08
2017-07-18T06:21:45.668Z,-4.08
2017-07-18T06:22:34.588Z,-4.08
2017-07-18T06:23:23.534Z,-4.07
2017-07-18T06:24:17.626Z,-4.07
2017-07-18T06:25:11.763Z,-4.07
2017-07-18T06:26:05.740Z,-4.07
2017-07-18T06:26:59.974Z,-4.07
2017-07-18T06:27:53.821Z,-0.73
2017-07-18T06:28:48.002Z,3.20
2017-07-18T06:29:36.925Z,-4.06
2017-07-18T06:30:32.210Z,8.39
2017-07-18T06:31:26.022Z,3.21
2017-07-18T06:32:26.075Z,7.01
2017-07-18T06:33:26.110Z,2.51
2017-07-18T06:34:26.185Z,8.31
2017-07-18T06:35:20.209Z,4.22
2017-07-18T06:36:08.281Z,-0.32
2017-07-18T06:37:02.392Z,13.52
2017-07-18T06:37:57.442Z,14.62
2017-07-18T06:38:51.855Z,15.01
2017-07-18T06:39:40.561Z,23.06
2017-07-18T06:40:29.724Z,19.72
2017-07-18T06:41:24.644Z,17.30
2017-07-18T06:42:19.621Z,17.53
2017-07-18T06:43:13.694Z,16.76
2017-07-18T06:44:02.720Z,16.05
2017-07-18T06:44:57.054Z,6.97
2017-07-18T06:45:51.887Z,23.06
2017-07-18T06:46:39.929Z,23.87
2017-07-18T06:47:29.054Z,21.60
2017-07-18T06:48:18.272Z,22.92
2017-07-18T06:49:13.379Z,29.73
2017-07-18T06:50:02.180Z,26.50
2017-07-18T06:50:57.300Z,27.78
2017-07-18T06:51:52.384Z,23.05
2017-07-18T06:52:46.456Z,27.94
2017-07-18T06:53:41.674Z,30.93
2017-07-18T06:54:29.593Z,28.85
2017-07-18T06:55:18.706Z,30.18
2017-07-18T06:56:13.842Z,27.15
2017-07-18T06:57:07.870Z,32.68
2017-07-18T06:57:56.676Z,28.81
2017-07-18T06:58:46.299Z,35.47
2017-07-18T06:59:39.708Z,32.70
2017-07-18T07:00:39.797Z,35.68
2017-07-18T07:01:33.826Z,33.76
2017-07-18T07:02:27.926Z,32.18
2017-07-18T07:03:21.934Z,30.46
2017-07-18T07:04:23.019Z,34.28
2017-07-18T07:05:12.304Z,33.27
2017-07-18T07:06:06.262Z,31.47
2017-07-18T07:07:01.177Z,32.81
2017-07-18T07:07:56.388Z,38.39
2017-07-18T07:08:45.885Z,40.16
2017-07-18T07:09:33.680Z,38.84
2017-07-18T07:10:27.613Z,45.21
2017-07-18T07:11:21.656Z,40.07
2017-07-18T07:12:16.556Z,46.11
2017-07-18T07:13:10.618Z,49.09
2017-07-18T07:13:59.935Z,49.62
2017-07-18T07:14:53.761Z,49.91
2017-07-18T07:15:47.837Z,48.97
2017-07-18T07:16:41.794Z,50.16
2017-07-18T07:17:41.927Z,49.96
2017-07-18T07:18:30.959Z,50.23
2017-07-18T07:19:25.308Z,50.16
2017-07-18T07:20:19.377Z,50.00
2017-07-18T07:21:14.462Z,48.71
2017-07-18T07:22:03.519Z,46.60
2017-07-18T07:22:58.581Z,42.33
2017-07-18T07:23:52.658Z,40.14
2017-07-18T07:24:47.391Z,43.27
2017-07-18T07:25:41.736Z,42.06
2017-07-18T07:26:35.548Z,40.58
2017-07-18T07:27:24.824Z,40.14
2017-07-18T07:28:13.808Z,35.98
2017-07-18T07:29:02.022Z,38.72
2017-07-18T07:29:56.079Z,34.16
2017-07-18T07:30:45.107Z,37.95
2017-07-18T07:31:33.839Z,40.81
2017-07-18T07:32:33.900Z,39.46
2017-07-18T07:33:34.132Z,46.26
2017-07-18T07:34:28.380Z,47.40
2017-07-18T07:35:22.452Z,48.65
2017-07-18T07:36:16.425Z,50.45
2017-07-18T07:37:10.556Z,50.43
2017-07-18T07:38:04.465Z,49.29
2017-07-18T07:38:58.548Z,49.32
2017-07-18T07:39:47.654Z,50.53
2017-07-18T07:40:42.923Z,49.23
2017-07-18T07:41:42.670Z,50.26
2017-07-18T07:42:31.895Z,49.42
2017-07-18T07:43:27.088Z,50.04
2017-07-18T07:44:21.102Z,50.29
2017-07-18T07:45:21.116Z,50.10
2017-07-18T07:46:15.158Z,50.04
2017-07-18T07:47:15.130Z,49.18
2017-07-18T07:48:09.112Z,47.35
2017-07-18T07:49:04.326Z,44.66
2017-07-18T07:49:58.307Z,47.88
2017-07-18T07:50:52.135Z,48.14
2017-07-18T07:51:41.465Z,47.27
2017-07-18T07:52:41.582Z,46.32
2017-07-18T07:53:35.576Z,48.69
2017-07-18T07:54:29.395Z,49.59
2017-07-18T07:55:30.508Z,50.51
2017-07-18T07:56:31.833Z,49.79
2017-07-18T07:57:31.736Z,50.52
2017-07-18T07:58:25.914Z,49.70
2017-07-18T07:59:20.030Z,50.66
2017-07-18T08:00:14.121Z,50.49
2017-07-18T08:01:09.127Z,50.38
2017-07-18T08:02:03.263Z,50.30
2017-07-18T08:03:03.187Z,50.27
2017-07-18T08:03:51.241Z,50.67
2017-07-18T08:04:40.194Z,49.70
2017-07-18T08:05:29.512Z,49.73
2017-07-18T08:06:18.426Z,49.83
2017-07-18T08:07:19.596Z,48.54
2017-07-18T08:08:14.583Z,47.15
2017-07-18T08:09:03.613Z,48.32
2017-07-18T08:09:52.839Z,48.73
2017-07-18T08:10:46.931Z,49.33
2017-07-18T08:11:41.035Z,48.89
2017-07-18T08:12:36.037Z,49.81
2017-07-18T08:13:36.099Z,49.39
2017-07-18T08:14:36.965Z,48.97
2017-07-18T08:15:36.935Z,47.34
2017-07-18T08:16:37.331Z,48.46
2017-07-18T08:17:32.429Z,47.13
2017-07-18T08:18:26.559Z,47.58
2017-07-18T08:19:21.569Z,47.75
2017-07-18T08:20:15.653Z,48.60
2017-07-18T08:21:09.702Z,49.97
2017-07-18T08:22:03.929Z,49.61
2017-07-18T08:22:57.901Z,51.18
2017-07-18T08:23:47.068Z,51.29
2017-07-18T08:24:36.003Z,49.86
2017-07-18T08:25:36.092Z,50.74
2017-07-18T08:26:31.094Z,50.86
2017-07-18T08:27:25.199Z,50.01
2017-07-18T08:28:31.676Z,49.75
2017-07-18T08:29:26.209Z,50.07
2017-07-18T08:30:20.329Z,48.13
2017-07-18T08:31:15.419Z,50.20
2017-07-18T08:32:09.520Z,49.27
2017-07-18T08:33:04.561Z,48.73
2017-07-18T08:34:04.533Z,47.64
2017-07-18T08:34:59.640Z,51.23
2017-07-18T08:35:53.677Z,50.66
2017-07-18T08:36:47.723Z,50.36
2017-07-18T08:37:41.801Z,50.09
2017-07-18T08:38:41.924Z,51.53
2017-07-18T08:39:35.884Z,50.58
2017-07-18T08:40:30.991Z,50.66
2017-07-18T08:41:25.035Z,50.30
2017-07-18T08:42:13.144Z,50.26
2017-07-18T08:43:08.232Z,50.29
2017-07-18T08:43:57.257Z,50.57
2017-07-18T08:44:57.259Z,50.52
2017-07-18T08:45:46.517Z,50.07
2017-07-18T08:46:35.424Z,49.73
2017-07-18T08:47:29.441Z,50.01
2017-07-18T08:48:23.464Z,50.35
2017-07-18T08:49:17.698Z,50.63
2017-07-18T08:50:06.659Z,48.81
2017-07-18T08:50:55.737Z,47.69
2017-07-18T08:51:50.732Z,48.69
2017-07-18T08:52:45.856Z,46.66
2017-07-18T08:53:39.983Z,46.26
2017-07-18T08:54:34.015Z,45.78
2017-07-18T08:55:29.042Z,45.52
2017-07-18T08:56:18.165Z,44.63
2017-07-18T08:57:18.255Z,46.02
2017-07-18T08:58:13.308Z,45.79
2017-07-18T08:59:01.617Z,47.07
2017-07-18T08:59:55.430Z,44.76
2017-07-18T09:00:49.531Z,43.93
2017-07-18T09:01:43.558Z,43.92
2017-07-18T09:02:32.752Z,45.09
2017-07-18T09:03:20.838Z,45.88
2017-07-18T09:04:14.945Z,48.34
2017-07-18T09:05:14.878Z,48.16
2017-07-18T09:06:09.055Z,48.48
2017-07-18T09:07:03.140Z,46.84
2017-07-18T09:08:03.187Z,47.82
2017-07-18T09:08:57.216Z,45.02
2017-07-18T09:09:52.305Z,45.21
2017-07-18T09:10:46.432Z,45.64
2017-07-18T09:11:41.619Z,46.93
2017-07-18T09:12:36.566Z,43.50
2017-07-18T09:13:30.673Z,43.64
2017-07-18T09:14:30.761Z,43.31
2017-07-18T09:15:24.911Z,44.41
2017-07-18T09:16:18.948Z,43.83
2017-07-18T09:17:12.950Z,44.67
2017-07-18T09:18:08.132Z,44.31
2017-07-18T09:19:08.111Z,45.04
2017-07-18T09:20:08.278Z,44.82
2017-07-18T09:21:08.329Z,45.66
2017-07-18T09:22:03.295Z,46.59
2017-07-18T09:22:52.619Z,47.29
2017-07-18T09:23:46.660Z,47.58
2017-07-18T09:24:46.664Z,44.22
2017-07-18T09:25:40.711Z,44.45
2017-07-18T09:26:35.831Z,43.98
2017-07-18T09:27:29.836Z,44.63
2017-07-18T09:28:25.020Z,45.27
2017-07-18T09:29:14.024Z,44.48
2017-07-18T09:30:09.132Z,44.67
2017-07-18T09:31:09.181Z,43.56
2017-07-18T09:32:09.308Z,45.79
2017-07-18T09:33:09.396Z,46.25
2017-07-18T09:34:03.406Z,47.56
2017-07-18T09:34:58.433Z,48.19
2017-07-18T09:35:53.568Z,48.99
2017-07-18T09:36:53.620Z,48.45
2017-07-18T09:37:42.691Z,48.89
2017-07-18T09:38:36.817Z,49.55
2017-07-18T09:39:30.713Z,48.50
2017-07-18T09:40:18.858Z,49.32
2017-07-18T09:41:12.973Z,49.02
2017-07-18T09:42:01.018Z,49.05
2017-07-18T09:42:55.060Z,49.27
2017-07-18T09:43:49.222Z,48.04
2017-07-18T09:44:44.155Z,48.09
2017-07-18T09:45:38.253Z,48.55
2017-07-18T09:46:38.339Z,50.74
2017-07-18T09:47:33.463Z,48.02
2017-07-18T09:48:27.528Z,48.07
2017-07-18T09:49:21.644Z,47.73
2017-07-18T09:50:15.606Z,46.04
2017-07-18T09:51:03.754Z,46.05
2017-07-18T09:51:57.794Z,46.14
2017-07-18T09:52:51.905Z,45.75
2017-07-18T09:53:46.015Z,46.16
2017-07-18T09:54:40.062Z,47.46
2017-07-18T09:55:40.094Z,48.85
2017-07-18T09:56:34.233Z,48.23
2017-07-18T09:57:28.161Z,50.08
2017-07-18T09:58:23.262Z,49.59
2017-07-18T09:59:12.404Z,50.26
2017-07-18T10:00:00.459Z,48.88
2017-07-18T10:01:00.554Z,49.16
2017-07-18T10:01:55.610Z,45.32
2017-07-18T10:02:49.666Z,45.10
2017-07-18T10:03:43.815Z,45.89
2017-07-18T10:04:38.056Z,45.06
2017-07-18T10:05:31.872Z,46.43
2017-07-18T10:06:31.998Z,46.91
2017-07-18T10:07:26.047Z,48.08
2017-07-18T10:08:26.018Z,47.76
2017-07-18T10:09:15.106Z,45.45
2017-07-18T10:10:04.403Z,45.47
2017-07-18T10:10:58.438Z,46.72
2017-07-18T10:11:52.405Z,47.64
2017-07-18T10:12:46.445Z,48.10
2017-07-18T10:13:40.491Z,47.32
2017-07-18T10:14:34.535Z,46.97
2017-07-18T10:15:28.614Z,47.84
2017-07-18T10:16:16.708Z,47.19
2017-07-18T10:17:10.734Z,47.07
2017-07-18T10:17:59.887Z,47.54
2017-07-18T10:18:48.961Z,47.78
2017-07-18T10:19:43.921Z,48.20
2017-07-18T10:20:38.079Z,49.04
2017-07-18T10:21:38.054Z,46.54
2017-07-18T10:22:33.205Z,48.37
2017-07-18T10:23:28.249Z,46.70
2017-07-18T10:24:22.300Z,47.05
2017-07-18T10:25:16.428Z,47.09
2017-07-18T10:26:10.556Z,46.45
2017-07-18T10:26:59.599Z,46.40
2017-07-18T10:27:53.666Z,45.93
2017-07-18T10:28:47.962Z,45.86
2017-07-18T10:29:41.745Z,45.50
2017-07-18T10:30:36.839Z,44.76
2017-07-18T10:31:36.959Z,46.95
2017-07-18T10:32:31.933Z,46.41
2017-07-18T10:33:27.104Z,46.74
2017-07-18T10:34:27.042Z,48.23
2017-07-18T10:35:21.223Z,48.52
2017-07-18T10:36:21.332Z,48.20
2017-07-18T10:37:15.320Z,47.81
2017-07-18T10:38:10.353Z,48.62
2017-07-18T10:38:58.375Z,46.94
2017-07-18T10:39:53.490Z,47.97
2017-07-18T10:40:47.606Z,45.60
2017-07-18T10:41:41.706Z,46.61
2017-07-18T10:42:35.847Z,47.41
2017-07-18T10:43:29.816Z,46.03
2017-07-18T10:44:17.875Z,46.22
2017-07-18T10:45:12.055Z,46.39
2017-07-18T10:46:07.169Z,46.25
2017-07-18T10:46:56.253Z,46.11
2017-07-18T10:47:50.352Z,45.68
2017-07-18T10:48:45.356Z,46.95
2017-07-18T10:49:39.421Z,47.24
2017-07-18T10:50:33.473Z,46.30
2017-07-18T10:51:22.608Z,45.25
2017-07-18T10:52:16.677Z,45.90
2017-07-18T10:53:05.783Z,45.02
2017-07-18T10:53:53.885Z,44.50
2017-07-18T10:54:41.916Z,45.92
2017-07-18T10:55:31.030Z,46.65
2017-07-18T10:56:26.132Z,45.82
2017-07-18T10:57:21.171Z,45.68
2017-07-18T10:58:16.317Z,44.20
2017-07-18T10:59:11.373Z,44.78
2017-07-18T11:00:00.476Z,44.55
2017-07-18T11:00:55.523Z,45.13
2017-07-18T11:01:44.633Z,43.92
2017-07-18T11:02:38.666Z,44.39
2017-07-18T11:03:33.752Z,44.54
2017-07-18T11:04:27.880Z,45.44
2017-07-18T11:05:22.975Z,46.39
2017-07-18T11:06:11.153Z,47.07
2017-07-18T11:07:00.150Z,45.45
2017-07-18T11:07:55.167Z,47.11
2017-07-18T11:08:50.436Z,44.35
2017-07-18T11:09:44.360Z,44.22
2017-07-18T11:10:33.479Z,45.72
2017-07-18T11:11:22.564Z,43.72
2017-07-18T11:12:16.652Z,44.43
2017-07-18T11:13:16.628Z,44.34
2017-07-18T11:14:05.773Z,44.44
2017-07-18T11:14:59.809Z,44.57
2017-07-18T11:15:53.921Z,45.32
2017-07-18T11:16:48.029Z,46.37
2017-07-18T11:17:43.162Z,45.54
2017-07-18T11:18:38.220Z,44.34
2017-07-18T11:19:27.383Z,44.34
2017-07-18T11:20:15.383Z,43.00
2017-07-18T11:21:04.415Z,43.02
2017-07-18T11:22:04.614Z,44.36
2017-07-18T11:22:58.625Z,42.18
2017-07-18T11:23:53.647Z,42.11
2017-07-18T11:24:49.076Z,42.05
2017-07-18T11:25:42.895Z,42.00
2017-07-18T11:26:37.944Z,41.78
2017-07-18T11:27:27.070Z,44.91
2017-07-18T11:28:21.152Z,42.39
2017-07-18T11:29:15.196Z,43.07
2017-07-18T11:30:10.422Z,42.77
2017-07-18T11:31:05.391Z,41.77
2017-07-18T11:31:59.464Z,41.69
2017-07-18T11:32:54.527Z,42.82
2017-07-18T11:33:49.658Z,40.37
2017-07-18T11:34:49.751Z,40.38
2017-07-18T11:35:49.873Z,41.03
2017-07-18T11:36:43.840Z,40.69
2017-07-18T11:37:32.936Z,41.24
2017-07-18T11:38:27.988Z,41.21
2017-07-18T11:39:17.136Z,42.53
2017-07-18T11:40:12.188Z,45.03
2017-07-18T11:41:06.344Z,42.30
2017-07-18T11:41:55.367Z,44.01
2017-07-18T11:42:44.462Z,42.97
2017-07-18T11:43:44.678Z,43.00
2017-07-18T11:44:38.698Z,43.76